sensor_id;sensor_type;location;lat;lon;timestamp;pressure;altitude;pressure_sealevel;temperature;humidity
75815;BME280;64451;45.574;14.224;2022-10-26T00:01:29;97432.25;;;12.17;94.73
75815;BME280;64451;45.574;14.224;2022-10-26T00:03:30;97428.34;;;12.28;93.68
75815;BME280;64451;45.574;14.224;2022-10-26T00:05:32;97427.84;;;12.26;93.48
75815;BME280;64451;45.574;14.224;2022-10-26T00:07:33;97429.56;;;12.12;93.91
75815;BME280;64451;45.574;14.224;2022-10-26T00:09:33;97437.41;;;12.08;94.34
75815;BME280;64451;45.574;14.224;2022-10-26T00:11:33;97430.59;;;12.16;94.48
75815;BME280;64451;45.574;14.224;2022-10-26T00:13:34;97433.03;;;12.17;94.20
75815;BME280;64451;45.574;14.224;2022-10-26T00:15:39;97428.25;;;12.09;94.33
75815;BME280;64451;45.574;14.224;2022-10-26T00:17:39;97434.19;;;12.06;94.67
75815;BME280;64451;45.574;14.224;2022-10-26T00:19:40;97432.78;;;12.14;95.09
75815;BME280;64451;45.574;14.224;2022-10-26T00:21:40;97434.47;;;12.09;94.79
75815;BME280;64451;45.574;14.224;2022-10-26T00:23:41;97434.91;;;11.88;95.62
75815;BME280;64451;45.574;14.224;2022-10-26T00:25:41;97432.53;;;11.76;96.87
75815;BME280;64451;45.574;14.224;2022-10-26T00:27:41;97439.19;;;11.89;96.18
75815;BME280;64451;45.574;14.224;2022-10-26T00:29:42;97433.91;;;12.07;95.34
75815;BME280;64451;45.574;14.224;2022-10-26T00:31:42;97431.59;;;11.96;94.97
75815;BME280;64451;45.574;14.224;2022-10-26T00:33:43;97436.41;;;11.60;96.17
75815;BME280;64451;45.574;14.224;2022-10-26T00:35:47;97436.03;;;11.32;97.97
75815;BME280;64451;45.574;14.224;2022-10-26T00:37:53;97426.28;;;11.41;97.39
75815;BME280;64451;45.574;14.224;2022-10-26T00:39:53;97426.59;;;11.35;97.26
75815;BME280;64451;45.574;14.224;2022-10-26T00:41:53;97434.25;;;11.17;98.59
75815;BME280;64451;45.574;14.224;2022-10-26T00:43:54;97437.13;;;11.31;98.41
75815;BME280;64451;45.574;14.224;2022-10-26T00:45:56;97434.41;;;11.31;98.80
75815;BME280;64451;45.574;14.224;2022-10-26T00:48:02;97437.97;;;11.21;98.94
75815;BME280;64451;45.574;14.224;2022-10-26T00:50:10;97426.34;;;11.31;98.84
75815;BME280;64451;45.574;14.224;2022-10-26T00:52:16;97435.81;;;11.23;98.37
75815;BME280;64451;45.574;14.224;2022-10-26T00:54:18;97435.78;;;11.34;98.06
75815;BME280;64451;45.574;14.224;2022-10-26T00:56:20;97445.34;;;11.50;97.45
75815;BME280;64451;45.574;14.224;2022-10-26T00:58:21;97438.06;;;11.56;97.06
75815;BME280;64451;45.574;14.224;2022-10-26T01:00:22;97433.19;;;11.58;97.02
75815;BME280;64451;45.574;14.224;2022-10-26T01:02:22;97440.84;;;11.79;95.42
75815;BME280;64451;45.574;14.224;2022-10-26T01:04:23;97441.16;;;11.73;94.66
75815;BME280;64451;45.574;14.224;2022-10-26T01:06:23;97441.44;;;11.71;94.52
75815;BME280;64451;45.574;14.224;2022-10-26T01:08:24;97440.06;;;11.79;94.41
75815;BME280;64451;45.574;14.224;2022-10-26T01:10:27;97428.75;;;11.77;94.13
75815;BME280;64451;45.574;14.224;2022-10-26T01:12:28;97433.69;;;11.65;94.65
75815;BME280;64451;45.574;14.224;2022-10-26T01:14:28;97434.97;;;11.72;94.93
75815;BME280;64451;45.574;14.224;2022-10-26T01:16:41;97434.97;;;11.72;94.68
75815;BME280;64451;45.574;14.224;2022-10-26T01:23:04;97434.63;;;11.40;95.84
75815;BME280;64451;45.574;14.224;2022-10-26T01:27:24;97437.16;;;11.70;94.73
75815;BME280;64451;45.574;14.224;2022-10-26T01:32:12;97427.63;;;11.83;94.14
75815;BME280;64451;45.574;14.224;2022-10-26T01:34:20;97425.22;;;11.81;93.54
75815;BME280;64451;45.574;14.224;2022-10-26T01:36:33;97424.94;;;11.44;95.43
75815;BME280;64451;45.574;14.224;2022-10-26T01:39:03;97418.06;;;11.62;94.92
75815;BME280;64451;45.574;14.224;2022-10-26T01:43:15;97408.97;;;11.52;93.84
75815;BME280;64451;45.574;14.224;2022-10-26T01:45:17;97404.91;;;11.55;94.31
75815;BME280;64451;45.574;14.224;2022-10-26T01:47:19;97411.44;;;11.44;94.70
75815;BME280;64451;45.574;14.224;2022-10-26T01:49:25;97406.47;;;11.17;96.17
75815;BME280;64451;45.574;14.224;2022-10-26T01:51:28;97411.03;;;11.21;96.14
75815;BME280;64451;45.574;14.224;2022-10-26T01:53:29;97406.22;;;11.18;95.87
75815;BME280;64451;45.574;14.224;2022-10-26T01:57:37;97398.00;;;10.89;97.52
75815;BME280;64451;45.574;14.224;2022-10-26T02:04:33;97402.97;;;10.57;98.71
75815;BME280;64451;45.574;14.224;2022-10-26T02:11:41;97408.16;;;10.28;99.79
75815;BME280;64451;45.574;14.224;2022-10-26T02:13:51;97405.97;;;10.20;99.92
75815;BME280;64451;45.574;14.224;2022-10-26T02:20:31;97415.41;;;10.07;100.00
75815;BME280;64451;45.574;14.224;2022-10-26T02:22:42;97414.88;;;10.05;100.00
75815;BME280;64451;45.574;14.224;2022-10-26T02:24:46;97412.44;;;10.08;100.00
75815;BME280;64451;45.574;14.224;2022-10-26T02:26:47;97414.59;;;10.06;100.00
75815;BME280;64451;45.574;14.224;2022-10-26T02:28:50;97408.38;;;10.16;100.00
75815;BME280;64451;45.574;14.224;2022-10-26T02:30:56;97406.78;;;10.15;99.70
75815;BME280;64451;45.574;14.224;2022-10-26T02:32:58;97404.38;;;10.03;100.00
75815;BME280;64451;45.574;14.224;2022-10-26T02:35:01;97401.16;;;10.27;99.88
75815;BME280;64451;45.574;14.224;2022-10-26T02:37:03;97402.47;;;10.14;99.85
75815;BME280;64451;45.574;14.224;2022-10-26T02:39:05;97401.41;;;10.15;100.00
75815;BME280;64451;45.574;14.224;2022-10-26T02:41:07;97397.34;;;10.18;99.92
75815;BME280;64451;45.574;14.224;2022-10-26T02:43:10;97397.38;;;10.28;99.85
75815;BME280;64451;45.574;14.224;2022-10-26T02:45:16;97396.84;;;10.21;99.83
75815;BME280;64451;45.574;14.224;2022-10-26T02:47:18;97401.13;;;10.17;100.00
75815;BME280;64451;45.574;14.224;2022-10-26T02:49:20;97406.25;;;10.13;100.00
75815;BME280;64451;45.574;14.224;2022-10-26T02:53:30;97406.53;;;10.11;100.00
75815;BME280;64451;45.574;14.224;2022-10-26T02:55:37;97411.38;;;10.25;99.89
75815;BME280;64451;45.574;14.224;2022-10-26T02:57:41;97407.06;;;10.19;99.93
75815;BME280;64451;45.574;14.224;2022-10-26T02:59:44;97412.19;;;10.10;99.96
75815;BME280;64451;45.574;14.224;2022-10-26T03:01:50;97397.13;;;10.04;99.64
75815;BME280;64451;45.574;14.224;2022-10-26T03:03:56;97404.13;;;10.10;99.49
75815;BME280;64451;45.574;14.224;2022-10-26T03:05:56;97413.53;;;9.97;99.95
75815;BME280;64451;45.574;14.224;2022-10-26T03:07:57;97410.03;;;9.97;100.00
75815;BME280;64451;45.574;14.224;2022-10-26T03:09:57;97406.56;;;9.86;100.00
75815;BME280;64451;45.574;14.224;2022-10-26T03:11:57;97409.78;;;9.88;100.00
75815;BME280;64451;45.574;14.224;2022-10-26T03:13:58;97404.66;;;9.87;100.00
75815;BME280;64451;45.574;14.224;2022-10-26T03:15:58;97397.94;;;9.89;100.00
75815;BME280;64451;45.574;14.224;2022-10-26T03:17:58;97399.28;;;9.92;99.77
75815;BME280;64451;45.574;14.224;2022-10-26T03:19:59;97393.88;;;9.92;99.65
75815;BME280;64451;45.574;14.224;2022-10-26T03:22:02;97393.66;;;9.93;99.40
75815;BME280;64451;45.574;14.224;2022-10-26T03:24:05;97379.91;;;10.05;99.06
75815;BME280;64451;45.574;14.224;2022-10-26T03:26:06;97387.44;;;10.03;99.26
75815;BME280;64451;45.574;14.224;2022-10-26T03:28:06;97380.97;;;9.99;98.31
75815;BME280;64451;45.574;14.224;2022-10-26T03:30:07;97389.06;;;9.78;99.71
75815;BME280;64451;45.574;14.224;2022-10-26T03:32:07;97392.84;;;9.77;100.00
75815;BME280;64451;45.574;14.224;2022-10-26T03:34:08;97393.38;;;9.79;100.00
75815;BME280;64451;45.574;14.224;2022-10-26T03:36:08;97388.53;;;9.71;100.00
75815;BME280;64451;45.574;14.224;2022-10-26T03:38:09;97394.72;;;9.82;100.00
75815;BME280;64451;45.574;14.224;2022-10-26T03:40:10;97399.56;;;9.85;100.00
75815;BME280;64451;45.574;14.224;2022-10-26T03:42:10;97400.91;;;9.88;100.00
75815;BME280;64451;45.574;14.224;2022-10-26T03:44:11;97402.50;;;9.83;99.94
75815;BME280;64451;45.574;14.224;2022-10-26T03:46:11;97400.63;;;9.74;100.00
75815;BME280;64451;45.574;14.224;2022-10-26T03:48:12;97397.13;;;9.63;99.86
75815;BME280;64451;45.574;14.224;2022-10-26T03:50:13;97397.13;;;9.58;100.00
75815;BME280;64451;45.574;14.224;2022-10-26T03:52:14;97396.59;;;9.61;100.00
75815;BME280;64451;45.574;14.224;2022-10-26T03:54:14;97402.50;;;9.58;100.00
75815;BME280;64451;45.574;14.224;2022-10-26T03:56:14;97403.56;;;9.67;99.93
75815;BME280;64451;45.574;14.224;2022-10-26T03:58:15;97411.09;;;9.60;99.44
75815;BME280;64451;45.574;14.224;2022-10-26T04:00:16;97407.34;;;9.61;99.77
75815;BME280;64451;45.574;14.224;2022-10-26T04:02:16;97405.72;;;9.55;99.85
75815;BME280;64451;45.574;14.224;2022-10-26T04:04:17;97401.44;;;9.64;100.00
75815;BME280;64451;45.574;14.224;2022-10-26T04:06:17;97396.59;;;9.66;99.74
75815;BME280;64451;45.574;14.224;2022-10-26T04:08:17;97403.84;;;9.61;99.95
75815;BME280;64451;45.574;14.224;2022-10-26T04:10:18;97401.97;;;9.66;99.80
75815;BME280;64451;45.574;14.224;2022-10-26T04:12:18;97403.59;;;9.77;99.31
75815;BME280;64451;45.574;14.224;2022-10-26T04:14:18;97404.91;;;9.75;99.33
75815;BME280;64451;45.574;14.224;2022-10-26T04:16:19;97404.13;;;9.64;99.78
75815;BME280;64451;45.574;14.224;2022-10-26T04:18:19;97404.13;;;9.54;100.00
75815;BME280;64451;45.574;14.224;2022-10-26T04:20:20;97405.72;;;9.45;100.00
75815;BME280;64451;45.574;14.224;2022-10-26T04:22:20;97405.72;;;9.45;100.00
75815;BME280;64451;45.574;14.224;2022-10-26T04:24:20;97398.19;;;9.47;100.00
75815;BME280;64451;45.574;14.224;2022-10-26T04:26:21;97404.91;;;9.44;100.00
75815;BME280;64451;45.574;14.224;2022-10-26T04:28:21;97398.72;;;9.49;100.00
75815;BME280;64451;45.574;14.224;2022-10-26T04:30:22;97401.97;;;9.61;100.00
75815;BME280;64451;45.574;14.224;2022-10-26T04:32:23;97394.97;;;9.55;100.00
75815;BME280;64451;45.574;14.224;2022-10-26T04:34:23;97394.97;;;9.65;100.00
75815;BME280;64451;45.574;14.224;2022-10-26T04:36:23;97388.78;;;9.75;100.00
75815;BME280;64451;45.574;14.224;2022-10-26T04:38:24;97392.56;;;9.89;100.00
75815;BME280;64451;45.574;14.224;2022-10-26T04:40:24;97401.44;;;9.90;99.54
75815;BME280;64451;45.574;14.224;2022-10-26T04:42:25;97393.63;;;9.88;99.55
75815;BME280;64451;45.574;14.224;2022-10-26T04:44:25;97388.78;;;10.00;98.75
75815;BME280;64451;45.574;14.224;2022-10-26T04:46:25;97383.16;;;9.97;98.78
75815;BME280;64451;45.574;14.224;2022-10-26T04:48:25;97376.16;;;10.11;98.66
75815;BME280;64451;45.574;14.224;2022-10-26T04:50:26;97376.41;;;10.14;98.52
75815;BME280;64451;45.574;14.224;2022-10-26T04:52:26;97383.69;;;10.04;98.41
75815;BME280;64451;45.574;14.224;2022-10-26T04:54:27;97388.50;;;9.92;99.39
75815;BME280;64451;45.574;14.224;2022-10-26T04:56:27;97384.75;;;10.03;99.72
75815;BME280;64451;45.574;14.224;2022-10-26T04:58:27;97387.19;;;9.94;99.29
75815;BME280;64451;45.574;14.224;2022-10-26T05:00:28;97396.59;;;9.97;99.34
75815;BME280;64451;45.574;14.224;2022-10-26T05:02:31;97391.75;;;9.83;99.67
75815;BME280;64451;45.574;14.224;2022-10-26T05:04:32;97395.53;;;9.88;99.54
75815;BME280;64451;45.574;14.224;2022-10-26T05:06:32;97404.91;;;9.90;99.45
75815;BME280;64451;45.574;14.224;2022-10-26T05:08:32;97407.34;;;10.02;99.05
75815;BME280;64451;45.574;14.224;2022-10-26T05:10:33;97403.56;;;9.98;98.83
75815;BME280;64451;45.574;14.224;2022-10-26T05:12:33;97402.75;;;10.07;98.94
75815;BME280;64451;45.574;14.224;2022-10-26T05:14:34;97399.81;;;9.99;98.57
75815;BME280;64451;45.574;14.224;2022-10-26T05:16:34;97398.47;;;10.06;98.71
75815;BME280;64451;45.574;14.224;2022-10-26T05:18:34;97389.84;;;10.35;96.94
75815;BME280;64451;45.574;14.224;2022-10-26T05:20:35;97390.09;;;10.33;96.44
75815;BME280;64451;45.574;14.224;2022-10-26T05:22:36;97401.41;;;10.05;97.47
75815;BME280;64451;45.574;14.224;2022-10-26T05:24:36;97400.88;;;9.93;97.92
75815;BME280;64451;45.574;14.224;2022-10-26T05:26:36;97404.09;;;10.00;98.02
75815;BME280;64451;45.574;14.224;2022-10-26T05:28:37;97407.59;;;10.21;97.51
75815;BME280;64451;45.574;14.224;2022-10-26T05:30:37;97409.72;;;10.39;95.16
75815;BME280;64451;45.574;14.224;2022-10-26T05:32:37;97408.69;;;10.35;94.66
75815;BME280;64451;45.574;14.224;2022-10-26T05:34:38;97417.25;;;10.22;95.89
75815;BME280;64451;45.574;14.224;2022-10-26T05:36:38;97417.03;;;10.23;96.30
75815;BME280;64451;45.574;14.224;2022-10-26T05:38:38;97420.78;;;10.02;96.79
75815;BME280;64451;45.574;14.224;2022-10-26T05:40:46;97417.81;;;9.98;96.97
75815;BME280;64451;45.574;14.224;2022-10-26T05:42:47;97418.09;;;10.02;96.47
75815;BME280;64451;45.574;14.224;2022-10-26T05:44:47;97431.00;;;10.25;95.85
75815;BME280;64451;45.574;14.224;2022-10-26T05:46:47;97423.47;;;10.22;95.21
75815;BME280;64451;45.574;14.224;2022-10-26T05:48:48;97426.69;;;10.14;95.55
75815;BME280;64451;45.574;14.224;2022-10-26T05:50:48;97436.38;;;10.15;96.31
75815;BME280;64451;45.574;14.224;2022-10-26T05:52:48;97424.53;;;10.16;95.92
75815;BME280;64451;45.574;14.224;2022-10-26T05:54:50;97432.06;;;10.24;95.79
75815;BME280;64451;45.574;14.224;2022-10-26T05:56:50;97440.13;;;10.14;95.98
75815;BME280;64451;45.574;14.224;2022-10-26T05:58:51;97447.94;;;10.16;95.96
75815;BME280;64451;45.574;14.224;2022-10-26T06:03:44;97443.41;;;10.26;95.54
75815;BME280;64451;45.574;14.224;2022-10-26T06:05:53;97450.09;;;10.24;95.81
75815;BME280;64451;45.574;14.224;2022-10-26T06:07:54;97451.97;;;10.38;95.37
75815;BME280;64451;45.574;14.224;2022-10-26T06:09:54;97451.19;;;10.43;95.19
75815;BME280;64451;45.574;14.224;2022-10-26T06:11:55;97451.16;;;10.53;94.78
75815;BME280;64451;45.574;14.224;2022-10-26T06:13:56;97446.25;;;10.65;93.90
75815;BME280;64451;45.574;14.224;2022-10-26T06:16:13;97450.88;;;10.60;93.71
75815;BME280;64451;45.574;14.224;2022-10-26T06:31:40;97450.88;;;9.99;96.70
75815;BME280;64451;45.574;14.224;2022-10-26T06:33:41;97452.25;;;9.96;97.18
75815;BME280;64451;45.574;14.224;2022-10-26T06:36:12;97452.75;;;10.08;96.63
75815;BME280;64451;45.574;14.224;2022-10-26T06:38:17;97457.34;;;10.13;96.20
75815;BME280;64451;45.574;14.224;2022-10-26T06:40:20;97464.63;;;10.43;95.90
75815;BME280;64451;45.574;14.224;2022-10-26T06:42:20;97458.72;;;10.36;95.74
75815;BME280;64451;45.574;14.224;2022-10-26T06:44:22;97457.34;;;10.38;96.57
75815;BME280;64451;45.574;14.224;2022-10-26T06:46:44;97464.34;;;10.39;95.54
75815;BME280;64451;45.574;14.224;2022-10-26T06:50:53;97467.59;;;10.31;95.72
75815;BME280;64451;45.574;14.224;2022-10-26T06:53:08;97462.19;;;10.31;95.40
75815;BME280;64451;45.574;14.224;2022-10-26T06:55:15;97468.66;;;10.30;95.85
75815;BME280;64451;45.574;14.224;2022-10-26T06:57:21;97470.81;;;10.13;96.30
75815;BME280;64451;45.574;14.224;2022-10-26T06:59:33;97471.31;;;9.79;97.21
75815;BME280;64451;45.574;14.224;2022-10-26T07:01:36;97475.09;;;10.09;97.48
75815;BME280;64451;45.574;14.224;2022-10-26T07:03:36;97471.34;;;10.20;97.07
75815;BME280;64451;45.574;14.224;2022-10-26T07:05:36;97476.75;;;10.35;95.98
75815;BME280;64451;45.574;14.224;2022-10-26T07:07:44;97483.47;;;10.38;95.45
75815;BME280;64451;45.574;14.224;2022-10-26T07:09:45;97488.53;;;10.50;95.27
75815;BME280;64451;45.574;14.224;2022-10-26T07:11:45;97489.63;;;10.54;94.65
75815;BME280;64451;45.574;14.224;2022-10-26T07:13:46;97492.03;;;10.65;94.51
75815;BME280;64451;45.574;14.224;2022-10-26T07:15:48;97491.53;;;10.53;94.98
75815;BME280;64451;45.574;14.224;2022-10-26T07:17:49;97490.97;;;10.56;95.13
75815;BME280;64451;45.574;14.224;2022-10-26T07:19:49;97485.34;;;10.43;95.46
75815;BME280;64451;45.574;14.224;2022-10-26T07:21:50;97486.13;;;10.48;95.50
75815;BME280;64451;45.574;14.224;2022-10-26T07:23:50;97499.56;;;10.58;94.43
75815;BME280;64451;45.574;14.224;2022-10-26T07:25:51;97500.91;;;10.76;94.20
75815;BME280;64451;45.574;14.224;2022-10-26T07:27:56;97509.78;;;10.72;94.80
75815;BME280;64451;45.574;14.224;2022-10-26T07:29:56;97511.16;;;10.33;95.02
75815;BME280;64451;45.574;14.224;2022-10-26T07:31:57;97509.81;;;10.31;96.42
75815;BME280;64451;45.574;14.224;2022-10-26T07:33:57;97512.75;;;10.19;96.89
75815;BME280;64451;45.574;14.224;2022-10-26T07:35:58;97520.03;;;10.49;96.06
75815;BME280;64451;45.574;14.224;2022-10-26T07:37:58;97512.78;;;10.60;95.18
75815;BME280;64451;45.574;14.224;2022-10-26T07:39:59;97515.72;;;10.58;95.03
75815;BME280;64451;45.574;14.224;2022-10-26T07:41:59;97522.97;;;10.78;94.94
75815;BME280;64451;45.574;14.224;2022-10-26T07:44:00;97520.56;;;10.72;94.57
75815;BME280;64451;45.574;14.224;2022-10-26T07:46:00;97519.75;;;10.76;93.87
75815;BME280;64451;45.574;14.224;2022-10-26T07:48:01;97520.56;;;10.72;94.02
75815;BME280;64451;45.574;14.224;2022-10-26T07:50:01;97530.25;;;10.57;94.29
75815;BME280;64451;45.574;14.224;2022-10-26T07:52:02;97524.03;;;10.72;92.99
75815;BME280;64451;45.574;14.224;2022-10-26T07:54:03;97520.78;;;10.90;93.13
75815;BME280;64451;45.574;14.224;2022-10-26T07:56:03;97521.25;;;11.18;92.42
75815;BME280;64451;45.574;14.224;2022-10-26T07:58:04;97524.13;;;11.32;91.90
75815;BME280;64451;45.574;14.224;2022-10-26T08:00:06;97527.91;;;11.31;89.93
75815;BME280;64451;45.574;14.224;2022-10-26T08:02:08;97528.25;;;11.09;91.75
75815;BME280;64451;45.574;14.224;2022-10-26T08:04:09;97531.03;;;10.78;92.94
75815;BME280;64451;45.574;14.224;2022-10-26T08:06:09;97531.06;;;10.63;92.56
75815;BME280;64451;45.574;14.224;2022-10-26T08:08:10;97532.91;;;10.83;92.75
75815;BME280;64451;45.574;14.224;2022-10-26T08:10:10;97519.94;;;11.05;92.46
75815;BME280;64451;45.574;14.224;2022-10-26T08:12:11;97529.09;;;11.09;91.74
75815;BME280;64451;45.574;14.224;2022-10-26T08:14:15;97527.13;;;11.25;92.04
75815;BME280;64451;45.574;14.224;2022-10-26T08:16:16;97520.09;;;11.34;91.53
75815;BME280;64451;45.574;14.224;2022-10-26T08:18:16;97520.97;;;11.19;92.60
75815;BME280;64451;45.574;14.224;2022-10-26T08:20:16;97527.22;;;11.64;90.72
75815;BME280;64451;45.574;14.224;2022-10-26T08:22:17;97520.41;;;11.87;88.82
75815;BME280;64451;45.574;14.224;2022-10-26T08:24:17;97524.13;;;11.91;89.89
75815;BME280;64451;45.574;14.224;2022-10-26T08:26:18;97527.31;;;11.98;87.56
75815;BME280;64451;45.574;14.224;2022-10-26T08:28:19;97523.50;;;11.55;89.71
75815;BME280;64451;45.574;14.224;2022-10-26T08:30:19;97522.09;;;11.68;91.16
75815;BME280;64451;45.574;14.224;2022-10-26T08:32:19;97519.13;;;11.69;91.49
75815;BME280;64451;45.574;14.224;2022-10-26T08:34:20;97522.81;;;11.89;90.90
75815;BME280;64451;45.574;14.224;2022-10-26T08:36:24;97520.31;;;11.97;89.69
75815;BME280;64451;45.574;14.224;2022-10-26T08:38:25;97518.91;;;12.44;87.60
75815;BME280;64451;45.574;14.224;2022-10-26T08:40:30;97521.19;;;12.27;87.34
75815;BME280;64451;45.574;14.224;2022-10-26T08:44:38;97518.97;;;12.00;88.88
75815;BME280;64451;45.574;14.224;2022-10-26T08:46:44;97518.63;;;12.41;89.08
75815;BME280;64451;45.574;14.224;2022-10-26T08:48:49;97515.09;;;12.45;88.65
75815;BME280;64451;45.574;14.224;2022-10-26T08:50:58;97516.47;;;12.08;90.03
75815;BME280;64451;45.574;14.224;2022-10-26T08:53:17;97515.81;;;12.22;91.65
75815;BME280;64451;45.574;14.224;2022-10-26T08:55:24;97512.00;;;12.28;91.13
75815;BME280;64451;45.574;14.224;2022-10-26T08:57:34;97515.81;;;12.22;91.20
75815;BME280;64451;45.574;14.224;2022-10-26T08:59:45;97520.44;;;12.21;90.21
75815;BME280;64451;45.574;14.224;2022-10-26T09:01:47;97508.66;;;12.70;88.34
75815;BME280;64451;45.574;14.224;2022-10-26T09:03:48;97512.50;;;12.35;90.12
75815;BME280;64451;45.574;14.224;2022-10-26T09:06:15;97507.81;;;12.46;90.39
75815;BME280;64451;45.574;14.224;2022-10-26T09:10:38;97503.16;;;13.33;86.38
75815;BME280;64451;45.574;14.224;2022-10-26T09:12:47;97503.59;;;13.16;87.93
75815;BME280;64451;45.574;14.224;2022-10-26T09:15:09;97506.09;;;12.84;88.97
75815;BME280;64451;45.574;14.224;2022-10-26T09:19:27;97516.06;;;13.12;90.67
75815;BME280;64451;45.574;14.224;2022-10-26T09:25:59;97505.31;;;13.74;86.82
75815;BME280;64451;45.574;14.224;2022-10-26T09:28:01;97504.56;;;14.06;84.50
75815;BME280;64451;45.574;14.224;2022-10-26T09:30:13;97510.44;;;13.75;84.38
75815;BME280;64451;45.574;14.224;2022-10-26T09:32:20;97504.63;;;13.63;85.16
75815;BME280;64451;45.574;14.224;2022-10-26T09:34:26;97507.94;;;13.60;88.13
75815;BME280;64451;45.574;14.224;2022-10-26T09:36:28;97511.03;;;13.48;87.03
75815;BME280;64451;45.574;14.224;2022-10-26T09:38:31;97510.00;;;13.68;88.57
75815;BME280;64451;45.574;14.224;2022-10-26T09:40:41;97501.97;;;13.82;87.14
75815;BME280;64451;45.574;14.224;2022-10-26T09:42:53;97499.16;;;14.06;85.96
75815;BME280;64451;45.574;14.224;2022-10-26T09:45:12;97506.59;;;14.33;84.53
75815;BME280;64451;45.574;14.224;2022-10-26T09:47:28;97507.75;;;14.46;83.45
75815;BME280;64451;45.574;14.224;2022-10-26T09:49:54;97503.03;;;14.84;82.45
75815;BME280;64451;45.574;14.224;2022-10-26T09:51:55;97510.94;;;14.80;82.17
75815;BME280;64451;45.574;14.224;2022-10-26T09:53:56;97511.28;;;15.20;81.21
75815;BME280;64451;45.574;14.224;2022-10-26T09:56:12;97507.56;;;15.57;79.53
75815;BME280;64451;45.574;14.224;2022-10-26T09:58:26;97504.75;;;15.35;81.20
75815;BME280;64451;45.574;14.224;2022-10-26T10:00:28;97513.69;;;15.63;81.23
75815;BME280;64451;45.574;14.224;2022-10-26T10:02:38;97512.44;;;16.19;78.79
75815;BME280;64451;45.574;14.224;2022-10-26T10:04:45;97518.13;;;16.76;77.01
75815;BME280;64451;45.574;14.224;2022-10-26T10:06:51;97515.41;;;16.76;77.46
75815;BME280;64451;45.574;14.224;2022-10-26T10:09:14;97519.41;;;17.49;73.50
75815;BME280;64451;45.574;14.224;2022-10-26T10:11:14;97504.69;;;17.59;74.31
75815;BME280;64451;45.574;14.224;2022-10-26T10:13:16;97511.91;;;17.06;74.80
75815;BME280;64451;45.574;14.224;2022-10-26T10:15:21;97513.63;;;17.42;75.23
75815;BME280;64451;45.574;14.224;2022-10-26T10:17:23;97515.72;;;17.54;74.91
75815;BME280;64451;45.574;14.224;2022-10-26T10:19:25;97508.53;;;17.49;74.81
75815;BME280;64451;45.574;14.224;2022-10-26T10:23:46;97510.28;;;17.62;76.44
75815;BME280;64451;45.574;14.224;2022-10-26T10:25:57;97505.66;;;17.54;74.25
75815;BME280;64451;45.574;14.224;2022-10-26T10:27:58;97518.41;;;17.45;75.05
75815;BME280;64451;45.574;14.224;2022-10-26T10:30:22;97503.91;;;17.67;74.14
75815;BME280;64451;45.574;14.224;2022-10-26T10:32:24;97499.72;;;17.61;73.73
75815;BME280;64451;45.574;14.224;2022-10-26T10:34:29;97498.06;;;17.82;74.93
75815;BME280;64451;45.574;14.224;2022-10-26T10:36:30;97502.38;;;18.01;73.18
75815;BME280;64451;45.574;14.224;2022-10-26T10:38:37;97487.78;;;18.40;72.05
75815;BME280;64451;45.574;14.224;2022-10-26T10:40:38;97490.16;;;18.67;72.17
75815;BME280;64451;45.574;14.224;2022-10-26T10:42:40;97495.13;;;19.21;70.41
75815;BME280;64451;45.574;14.224;2022-10-26T10:44:41;97489.44;;;19.34;70.83
75815;BME280;64451;45.574;14.224;2022-10-26T10:46:42;97492.88;;;19.52;67.59
75815;BME280;64451;45.574;14.224;2022-10-26T10:48:47;97491.84;;;19.95;68.52
75815;BME280;64451;45.574;14.224;2022-10-26T10:53:17;97491.28;;;20.43;67.53
75815;BME280;64451;45.574;14.224;2022-10-26T10:55:20;97491.63;;;20.21;67.83
75815;BME280;64451;45.574;14.224;2022-10-26T10:57:31;97493.06;;;20.18;67.52
75815;BME280;64451;45.574;14.224;2022-10-26T11:06:26;97478.50;;;19.73;70.30
75815;BME280;64451;45.574;14.224;2022-10-26T11:08:53;97481.63;;;19.62;68.87
75815;BME280;64451;45.574;14.224;2022-10-26T11:11:06;97483.41;;;19.50;69.80
75815;BME280;64451;45.574;14.224;2022-10-26T11:13:16;97485.25;;;18.99;72.27
75815;BME280;64451;45.574;14.224;2022-10-26T11:15:21;97488.47;;;19.01;72.01
75815;BME280;64451;45.574;14.224;2022-10-26T11:17:30;97481.75;;;19.36;70.17
75815;BME280;64451;45.574;14.224;2022-10-26T11:19:41;97480.63;;;19.88;70.15
75815;BME280;64451;45.574;14.224;2022-10-26T11:21:48;97486.91;;;20.42;69.41
75815;BME280;64451;45.574;14.224;2022-10-26T11:24:20;97482.91;;;20.07;68.39
75815;BME280;64451;45.574;14.224;2022-10-26T11:26:35;97486.88;;;20.09;68.31
75815;BME280;64451;45.574;14.224;2022-10-26T11:28:54;97490.69;;;20.17;67.55
75815;BME280;64451;45.574;14.224;2022-10-26T11:31:02;97484.59;;;20.32;66.51
75815;BME280;64451;45.574;14.224;2022-10-26T11:33:10;97488.34;;;20.28;68.36
75815;BME280;64451;45.574;14.224;2022-10-26T11:35:25;97486.09;;;20.09;66.86
75815;BME280;64451;45.574;14.224;2022-10-26T11:41:50;97491.78;;;21.03;65.44
75815;BME280;64451;45.574;14.224;2022-10-26T11:44:15;97486.38;;;20.70;68.17
75815;BME280;64451;45.574;14.224;2022-10-26T11:46:32;97486.53;;;20.32;66.62
75815;BME280;64451;45.574;14.224;2022-10-26T11:50:44;97490.22;;;19.94;67.07
75815;BME280;64451;45.574;14.224;2022-10-26T11:55:14;97487.75;;;19.80;69.57
75815;BME280;64451;45.574;14.224;2022-10-26T11:57:15;97482.34;;;19.92;67.93
75815;BME280;64451;45.574;14.224;2022-10-26T11:59:24;97481.28;;;20.06;66.94
75815;BME280;64451;45.574;14.224;2022-10-26T12:01:31;97487.91;;;20.05;66.79
75815;BME280;64451;45.574;14.224;2022-10-26T12:03:36;97490.75;;;20.29;66.50
75815;BME280;64451;45.574;14.224;2022-10-26T12:05:50;97493.81;;;20.07;66.53
75815;BME280;64451;45.574;14.224;2022-10-26T12:07:56;97496.28;;;20.20;69.40